sensor_id;sensor_type;location;lat;lon;timestamp;temperature;humidity
13848;DHT22;6994;49.752;6.094;2023-02-17T00:02:12;10.30;99.90
13848;DHT22;6994;49.752;6.094;2023-02-17T00:04:39;10.30;99.90
13848;DHT22;6994;49.752;6.094;2023-02-17T00:07:07;10.20;99.90
13848;DHT22;6994;49.752;6.094;2023-02-17T00:09:35;10.20;99.90
13848;DHT22;6994;49.752;6.094;2023-02-17T00:12:01;10.20;99.90
13848;DHT22;6994;49.752;6.094;2023-02-17T00:14:28;10.10;99.90
13848;DHT22;6994;49.752;6.094;2023-02-17T00:16:55;10.10;99.90
13848;DHT22;6994;49.752;6.094;2023-02-17T00:19:23;10.10;99.90
13848;DHT22;6994;49.752;6.094;2023-02-17T00:21:56;10.10;99.90
13848;DHT22;6994;49.752;6.094;2023-02-17T00:24:20;10.10;99.90
13848;DHT22;6994;49.752;6.094;2023-02-17T00:26:48;10.00;99.90
13848;DHT22;6994;49.752;6.094;2023-02-17T00:29:16;10.00;99.90
13848;DHT22;6994;49.752;6.094;2023-02-17T00:31:43;10.10;99.90
13848;DHT22;6994;49.752;6.094;2023-02-17T00:34:11;10.10;99.90
13848;DHT22;6994;49.752;6.094;2023-02-17T00:36:38;10.10;99.90
13848;DHT22;6994;49.752;6.094;2023-02-17T00:39:05;10.10;99.90
13848;DHT22;6994;49.752;6.094;2023-02-17T00:41:32;10.10;99.90
13848;DHT22;6994;49.752;6.094;2023-02-17T00:43:59;10.10;99.90
13848;DHT22;6994;49.752;6.094;2023-02-17T00:46:26;10.10;99.90
13848;DHT22;6994;49.752;6.094;2023-02-17T00:48:54;10.10;99.90
13848;DHT22;6994;49.752;6.094;2023-02-17T00:51:23;10.10;99.90
13848;DHT22;6994;49.752;6.094;2023-02-17T00:53:50;10.10;99.90
13848;DHT22;6994;49.752;6.094;2023-02-17T00:56:17;10.10;99.90
13848;DHT22;6994;49.752;6.094;2023-02-17T00:58:45;10.10;99.90
13848;DHT22;6994;49.752;6.094;2023-02-17T01:01:12;10.10;99.90
13848;DHT22;6994;49.752;6.094;2023-02-17T01:03:39;10.30;99.90
13848;DHT22;6994;49.752;6.094;2023-02-17T01:06:07;10.30;99.90
13848;DHT22;6994;49.752;6.094;2023-02-17T01:08:34;10.60;99.90
13848;DHT22;6994;49.752;6.094;2023-02-17T01:11:01;10.60;99.90
13848;DHT22;6994;49.752;6.094;2023-02-17T01:13:29;10.50;99.90
13848;DHT22;6994;49.752;6.094;2023-02-17T01:15:57;10.40;99.90
13848;DHT22;6994;49.752;6.094;2023-02-17T01:18:24;10.40;99.90
13848;DHT22;6994;49.752;6.094;2023-02-17T01:20:51;10.40;99.90
13848;DHT22;6994;49.752;6.094;2023-02-17T01:23:18;10.30;99.90
13848;DHT22;6994;49.752;6.094;2023-02-17T01:25:46;10.30;99.90
13848;DHT22;6994;49.752;6.094;2023-02-17T01:28:17;10.30;99.90
13848;DHT22;6994;49.752;6.094;2023-02-17T01:30:43;10.20;99.90
13848;DHT22;6994;49.752;6.094;2023-02-17T01:33:10;10.20;99.90
13848;DHT22;6994;49.752;6.094;2023-02-17T01:35:37;10.20;99.90
13848;DHT22;6994;49.752;6.094;2023-02-17T01:38:04;10.20;99.90
13848;DHT22;6994;49.752;6.094;2023-02-17T01:40:31;10.20;99.90
13848;DHT22;6994;49.752;6.094;2023-02-17T01:42:59;10.20;99.90
13848;DHT22;6994;49.752;6.094;2023-02-17T01:45:37;10.20;99.90
13848;DHT22;6994;49.752;6.094;2023-02-17T01:48:07;10.20;99.90
13848;DHT22;6994;49.752;6.094;2023-02-17T01:50:36;10.20;99.90
13848;DHT22;6994;49.752;6.094;2023-02-17T01:52:59;10.20;99.90
13848;DHT22;6994;49.752;6.094;2023-02-17T01:55:27;10.30;99.90
13848;DHT22;6994;49.752;6.094;2023-02-17T01:57:55;10.30;99.90
13848;DHT22;6994;49.752;6.094;2023-02-17T02:00:22;10.40;99.90
13848;DHT22;6994;49.752;6.094;2023-02-17T02:02:49;10.40;99.90
13848;DHT22;6994;49.752;6.094;2023-02-17T02:05:16;10.40;99.90
13848;DHT22;6994;49.752;6.094;2023-02-17T02:07:43;10.30;99.90
13848;DHT22;6994;49.752;6.094;2023-02-17T02:10:11;10.50;99.90
13848;DHT22;6994;49.752;6.094;2023-02-17T02:12:38;10.50;99.90
13848;DHT22;6994;49.752;6.094;2023-02-17T02:15:10;10.60;99.90
13848;DHT22;6994;49.752;6.094;2023-02-17T02:17:59;10.60;99.90
13848;DHT22;6994;49.752;6.094;2023-02-17T02:26:17;10.40;99.90
13848;DHT22;6994;49.752;6.094;2023-02-17T02:31:44;10.20;99.90
13848;DHT22;6994;49.752;6.094;2023-02-17T02:35:00;10.20;99.90
13848;DHT22;6994;49.752;6.094;2023-02-17T02:36:58;10.20;99.90
13848;DHT22;6994;49.752;6.094;2023-02-17T02:39:23;10.20;99.90
13848;DHT22;6994;49.752;6.094;2023-02-17T02:41:53;10.20;99.90
13848;DHT22;6994;49.752;6.094;2023-02-17T02:44:20;10.10;99.90
13848;DHT22;6994;49.752;6.094;2023-02-17T02:47:04;10.20;99.90
13848;DHT22;6994;49.752;6.094;2023-02-17T02:49:26;10.20;99.90
13848;DHT22;6994;49.752;6.094;2023-02-17T02:52:33;10.20;99.90
13848;DHT22;6994;49.752;6.094;2023-02-17T02:54:51;10.40;99.90
13848;DHT22;6994;49.752;6.094;2023-02-17T02:57:28;10.40;99.90
13848;DHT22;6994;49.752;6.094;2023-02-17T03:08:09;10.30;99.90
13848;DHT22;6994;49.752;6.094;2023-02-17T03:10:35;10.30;99.90
13848;DHT22;6994;49.752;6.094;2023-02-17T03:13:03;10.50;99.90
13848;DHT22;6994;49.752;6.094;2023-02-17T03:15:32;10.50;99.90
13848;DHT22;6994;49.752;6.094;2023-02-17T03:17:59;10.50;99.90
13848;DHT22;6994;49.752;6.094;2023-02-17T03:20:28;10.40;99.90
13848;DHT22;6994;49.752;6.094;2023-02-17T03:22:55;10.40;99.90
13848;DHT22;6994;49.752;6.094;2023-02-17T03:25:23;10.40;99.90
13848;DHT22;6994;49.752;6.094;2023-02-17T03:27:51;10.40;99.90
13848;DHT22;6994;49.752;6.094;2023-02-17T03:30:18;10.40;99.90
13848;DHT22;6994;49.752;6.094;2023-02-17T03:32:45;10.40;99.90
13848;DHT22;6994;49.752;6.094;2023-02-17T03:35:13;10.50;99.90
13848;DHT22;6994;49.752;6.094;2023-02-17T03:37:40;10.80;99.90
13848;DHT22;6994;49.752;6.094;2023-02-17T03:40:07;10.90;99.90
13848;DHT22;6994;49.752;6.094;2023-02-17T03:42:34;10.80;99.90
13848;DHT22;6994;49.752;6.094;2023-02-17T03:45:02;10.90;99.90
13848;DHT22;6994;49.752;6.094;2023-02-17T03:47:29;10.90;99.90
13848;DHT22;6994;49.752;6.094;2023-02-17T03:49:56;10.90;99.90
13848;DHT22;6994;49.752;6.094;2023-02-17T03:52:24;10.90;99.90
13848;DHT22;6994;49.752;6.094;2023-02-17T03:54:51;11.00;99.90
13848;DHT22;6994;49.752;6.094;2023-02-17T03:57:18;11.00;99.90
13848;DHT22;6994;49.752;6.094;2023-02-17T03:59:46;10.90;99.90
13848;DHT22;6994;49.752;6.094;2023-02-17T04:02:14;10.80;99.90
13848;DHT22;6994;49.752;6.094;2023-02-17T04:04:41;10.80;99.90
13848;DHT22;6994;49.752;6.094;2023-02-17T04:07:08;10.80;99.90
13848;DHT22;6994;49.752;6.094;2023-02-17T04:09:36;10.80;99.90
13848;DHT22;6994;49.752;6.094;2023-02-17T04:12:03;11.00;99.90
13848;DHT22;6994;49.752;6.094;2023-02-17T04:14:30;11.00;99.90
13848;DHT22;6994;49.752;6.094;2023-02-17T04:16:57;11.00;99.90
13848;DHT22;6994;49.752;6.094;2023-02-17T04:19:25;10.90;99.90
13848;DHT22;6994;49.752;6.094;2023-02-17T04:21:52;10.90;99.90
13848;DHT22;6994;49.752;6.094;2023-02-17T04:24:19;10.90;99.90
13848;DHT22;6994;49.752;6.094;2023-02-17T04:26:46;10.80;99.90
13848;DHT22;6994;49.752;6.094;2023-02-17T04:29:13;11.10;99.90
13848;DHT22;6994;49.752;6.094;2023-02-17T04:31:41;11.10;99.90
13848;DHT22;6994;49.752;6.094;2023-02-17T04:34:08;11.10;99.90
13848;DHT22;6994;49.752;6.094;2023-02-17T04:36:36;11.10;99.90
13848;DHT22;6994;49.752;6.094;2023-02-17T04:39:04;11.00;99.90
13848;DHT22;6994;49.752;6.094;2023-02-17T04:41:32;11.00;99.90
13848;DHT22;6994;49.752;6.094;2023-02-17T04:44:00;11.00;99.90
13848;DHT22;6994;49.752;6.094;2023-02-17T04:46:28;11.00;99.90
13848;DHT22;6994;49.752;6.094;2023-02-17T04:48:55;10.90;99.90
13848;DHT22;6994;49.752;6.094;2023-02-17T04:51:22;10.90;99.90
13848;DHT22;6994;49.752;6.094;2023-02-17T04:53:49;10.90;99.90
13848;DHT22;6994;49.752;6.094;2023-02-17T04:56:16;10.90;99.90
13848;DHT22;6994;49.752;6.094;2023-02-17T04:58:44;10.90;99.90
13848;DHT22;6994;49.752;6.094;2023-02-17T05:01:11;10.90;99.90
13848;DHT22;6994;49.752;6.094;2023-02-17T05:03:38;10.90;99.90
13848;DHT22;6994;49.752;6.094;2023-02-17T05:06:06;10.90;99.90
13848;DHT22;6994;49.752;6.094;2023-02-17T05:08:33;10.90;99.90
13848;DHT22;6994;49.752;6.094;2023-02-17T05:11:00;10.90;99.90
13848;DHT22;6994;49.752;6.094;2023-02-17T05:13:28;10.90;99.90
13848;DHT22;6994;49.752;6.094;2023-02-17T05:15:55;11.00;99.90
13848;DHT22;6994;49.752;6.094;2023-02-17T05:18:22;10.90;99.90
13848;DHT22;6994;49.752;6.094;2023-02-17T05:20:50;11.10;99.90
13848;DHT22;6994;49.752;6.094;2023-02-17T05:23:17;11.20;99.90
13848;DHT22;6994;49.752;6.094;2023-02-17T05:25:45;11.20;99.90
13848;DHT22;6994;49.752;6.094;2023-02-17T05:28:12;11.20;99.90
13848;DHT22;6994;49.752;6.094;2023-02-17T05:30:39;11.10;99.90
13848;DHT22;6994;49.752;6.094;2023-02-17T05:33:06;11.10;99.90
13848;DHT22;6994;49.752;6.094;2023-02-17T05:35:34;11.10;99.90
13848;DHT22;6994;49.752;6.094;2023-02-17T05:38:01;11.10;99.90
13848;DHT22;6994;49.752;6.094;2023-02-17T05:40:28;11.20;99.90
13848;DHT22;6994;49.752;6.094;2023-02-17T05:42:55;11.30;99.90
13848;DHT22;6994;49.752;6.094;2023-02-17T05:45:23;11.20;99.90
13848;DHT22;6994;49.752;6.094;2023-02-17T05:47:51;11.20;99.90
13848;DHT22;6994;49.752;6.094;2023-02-17T05:50:18;11.20;99.90
13848;DHT22;6994;49.752;6.094;2023-02-17T05:52:45;11.10;99.90
13848;DHT22;6994;49.752;6.094;2023-02-17T05:55:13;11.10;99.90
13848;DHT22;6994;49.752;6.094;2023-02-17T05:57:40;11.10;99.90
13848;DHT22;6994;49.752;6.094;2023-02-17T06:00:07;11.10;99.90
13848;DHT22;6994;49.752;6.094;2023-02-17T06:02:34;11.10;99.90
13848;DHT22;6994;49.752;6.094;2023-02-17T06:05:01;11.10;99.90
13848;DHT22;6994;49.752;6.094;2023-02-17T06:07:29;11.30;99.90
13848;DHT22;6994;49.752;6.094;2023-02-17T06:09:57;11.30;99.90
13848;DHT22;6994;49.752;6.094;2023-02-17T06:12:25;11.20;99.90
13848;DHT22;6994;49.752;6.094;2023-02-17T06:14:53;11.30;99.90
13848;DHT22;6994;49.752;6.094;2023-02-17T06:17:20;11.20;99.90
13848;DHT22;6994;49.752;6.094;2023-02-17T06:19:47;11.20;99.90
13848;DHT22;6994;49.752;6.094;2023-02-17T06:22:14;11.20;99.90
13848;DHT22;6994;49.752;6.094;2023-02-17T06:24:41;11.40;99.90
13848;DHT22;6994;49.752;6.094;2023-02-17T06:27:09;11.40;99.90
13848;DHT22;6994;49.752;6.094;2023-02-17T06:29:36;11.40;99.90
13848;DHT22;6994;49.752;6.094;2023-02-17T06:32:03;11.30;99.90
13848;DHT22;6994;49.752;6.094;2023-02-17T06:34:30;11.30;99.90
13848;DHT22;6994;49.752;6.094;2023-02-17T06:36:57;11.20;99.90
13848;DHT22;6994;49.752;6.094;2023-02-17T06:39:25;11.40;99.90
13848;DHT22;6994;49.752;6.094;2023-02-17T06:41:52;11.40;99.90
13848;DHT22;6994;49.752;6.094;2023-02-17T06:44:19;11.40;99.90
13848;DHT22;6994;49.752;6.094;2023-02-17T06:46:46;11.30;99.90
13848;DHT22;6994;49.752;6.094;2023-02-17T06:49:14;11.20;99.90
13848;DHT22;6994;49.752;6.094;2023-02-17T06:51:41;11.20;99.90
13848;DHT22;6994;49.752;6.094;2023-02-17T06:54:09;11.10;99.90
13848;DHT22;6994;49.752;6.094;2023-02-17T06:56:36;11.10;99.90
13848;DHT22;6994;49.752;6.094;2023-02-17T06:59:03;11.20;99.90
13848;DHT22;6994;49.752;6.094;2023-02-17T07:01:30;11.20;99.90
13848;DHT22;6994;49.752;6.094;2023-02-17T07:03:58;11.20;99.90
13848;DHT22;6994;49.752;6.094;2023-02-17T07:06:26;11.20;99.90
13848;DHT22;6994;49.752;6.094;2023-02-17T07:08:53;11.20;99.90
13848;DHT22;6994;49.752;6.094;2023-02-17T07:11:21;11.20;99.90
13848;DHT22;6994;49.752;6.094;2023-02-17T07:13:48;11.20;99.90
13848;DHT22;6994;49.752;6.094;2023-02-17T07:16:15;11.10;99.90
13848;DHT22;6994;49.752;6.094;2023-02-17T07:18:42;11.10;99.90
13848;DHT22;6994;49.752;6.094;2023-02-17T07:21:10;11.30;99.90
13848;DHT22;6994;49.752;6.094;2023-02-17T07:23:37;11.50;99.90
13848;DHT22;6994;49.752;6.094;2023-02-17T07:26:05;11.50;99.90
13848;DHT22;6994;49.752;6.094;2023-02-17T07:28:31;11.40;99.90
13848;DHT22;6994;49.752;6.094;2023-02-17T07:31:03;11.30;99.90
13848;DHT22;6994;49.752;6.094;2023-02-17T07:33:26;11.10;99.90
13848;DHT22;6994;49.752;6.094;2023-02-17T07:35:53;11.00;99.90
13848;DHT22;6994;49.752;6.094;2023-02-17T07:38:20;10.90;99.90
13848;DHT22;6994;49.752;6.094;2023-02-17T07:40:47;10.80;99.90
13848;DHT22;6994;49.752;6.094;2023-02-17T07:43:15;10.70;99.90
13848;DHT22;6994;49.752;6.094;2023-02-17T07:45:43;10.60;99.90
13848;DHT22;6994;49.752;6.094;2023-02-17T07:48:10;10.60;99.90
13848;DHT22;6994;49.752;6.094;2023-02-17T07:50:37;10.60;99.90
13848;DHT22;6994;49.752;6.094;2023-02-17T07:53:05;10.60;99.90
13848;DHT22;6994;49.752;6.094;2023-02-17T07:55:32;10.70;99.90
13848;DHT22;6994;49.752;6.094;2023-02-17T07:57:59;10.80;99.90
13848;DHT22;6994;49.752;6.094;2023-02-17T08:00:26;10.80;99.90
13848;DHT22;6994;49.752;6.094;2023-02-17T08:02:54;10.80;99.90
13848;DHT22;6994;49.752;6.094;2023-02-17T08:05:21;10.70;99.90
13848;DHT22;6994;49.752;6.094;2023-02-17T08:07:48;10.70;99.90
13848;DHT22;6994;49.752;6.094;2023-02-17T08:10:15;10.60;99.90
13848;DHT22;6994;49.752;6.094;2023-02-17T08:13:01;10.60;99.90
13848;DHT22;6994;49.752;6.094;2023-02-17T08:15:47;10.60;99.90
13848;DHT22;6994;49.752;6.094;2023-02-17T08:18:15;10.60;99.90
13848;DHT22;6994;49.752;6.094;2023-02-17T08:20:42;10.60;99.90
13848;DHT22;6994;49.752;6.094;2023-02-17T08:23:09;10.60;99.90
13848;DHT22;6994;49.752;6.094;2023-02-17T08:25:36;10.60;99.90
13848;DHT22;6994;49.752;6.094;2023-02-17T08:28:03;10.60;99.90
13848;DHT22;6994;49.752;6.094;2023-02-17T08:30:33;10.70;99.90
13848;DHT22;6994;49.752;6.094;2023-02-17T08:32:58;10.90;99.90
13848;DHT22;6994;49.752;6.094;2023-02-17T08:35:25;11.00;99.90
13848;DHT22;6994;49.752;6.094;2023-02-17T08:37:53;11.00;99.90
13848;DHT22;6994;49.752;6.094;2023-02-17T08:40:21;11.00;99.90
13848;DHT22;6994;49.752;6.094;2023-02-17T08:42:48;11.00;99.90
13848;DHT22;6994;49.752;6.094;2023-02-17T08:45:16;11.00;99.90
13848;DHT22;6994;49.752;6.094;2023-02-17T08:47:43;11.00;99.90
13848;DHT22;6994;49.752;6.094;2023-02-17T08:50:10;11.20;99.90
13848;DHT22;6994;49.752;6.094;2023-02-17T08:52:37;11.30;99.90
13848;DHT22;6994;49.752;6.094;2023-02-17T08:55:04;11.50;99.90
13848;DHT22;6994;49.752;6.094;2023-02-17T08:57:31;11.50;99.90
13848;DHT22;6994;49.752;6.094;2023-02-17T08:59:59;11.40;99.90
13848;DHT22;6994;49.752;6.094;2023-02-17T09:02:27;11.40;99.90
13848;DHT22;6994;49.752;6.094;2023-02-17T09:04:55;11.40;99.90
13848;DHT22;6994;49.752;6.094;2023-02-17T09:07:23;11.40;99.90
13848;DHT22;6994;49.752;6.094;2023-02-17T09:09:50;11.40;99.90
13848;DHT22;6994;49.752;6.094;2023-02-17T09:12:18;11.40;99.90
13848;DHT22;6994;49.752;6.094;2023-02-17T09:14:45;11.60;99.90
13848;DHT22;6994;49.752;6.094;2023-02-17T09:17:12;11.90;99.90
13848;DHT22;6994;49.752;6.094;2023-02-17T09:19:39;11.90;99.90
13848;DHT22;6994;49.752;6.094;2023-02-17T09:22:06;11.90;99.90
13848;DHT22;6994;49.752;6.094;2023-02-17T09:24:34;11.90;99.90
13848;DHT22;6994;49.752;6.094;2023-02-17T09:27:01;11.90;99.90
13848;DHT22;6994;49.752;6.094;2023-02-17T09:29:28;11.90;99.90
13848;DHT22;6994;49.752;6.094;2023-02-17T09:31:56;11.80;99.90
13848;DHT22;6994;49.752;6.094;2023-02-17T09:34:23;11.80;99.90
13848;DHT22;6994;49.752;6.094;2023-02-17T09:36:51;11.80;99.90
13848;DHT22;6994;49.752;6.094;2023-02-17T09:39:18;11.80;99.90
13848;DHT22;6994;49.752;6.094;2023-02-17T09:41:49;11.80;99.90
13848;DHT22;6994;49.752;6.094;2023-02-17T09:44:22;11.90;99.90
13848;DHT22;6994;49.752;6.094;2023-02-17T09:46:56;12.00;99.90
13848;DHT22;6994;49.752;6.094;2023-02-17T09:49:23;12.00;99.90
13848;DHT22;6994;49.752;6.094;2023-02-17T09:51:59;12.00;99.90
13848;DHT22;6994;49.752;6.094;2023-02-17T09:56:52;12.00;99.90
13848;DHT22;6994;49.752;6.094;2023-02-17T10:01:55;12.00;99.90
13848;DHT22;6994;49.752;6.094;2023-02-17T10:04:25;12.10;99.90
13848;DHT22;6994;49.752;6.094;2023-02-17T10:06:53;12.10;99.90
13848;DHT22;6994;49.752;6.094;2023-02-17T10:09:29;12.10;99.90
13848;DHT22;6994;49.752;6.094;2023-02-17T10:12:05;12.10;99.90
13848;DHT22;6994;49.752;6.094;2023-02-17T10:17:19;12.20;99.90
13848;DHT22;6994;49.752;6.094;2023-02-17T10:19:52;12.20;99.90
13848;DHT22;6994;49.752;6.094;2023-02-17T10:22:20;12.30;99.90
13848;DHT22;6994;49.752;6.094;2023-02-17T10:24:47;12.30;99.90
13848;DHT22;6994;49.752;6.094;2023-02-17T10:27:38;12.30;99.90
13848;DHT22;6994;49.752;6.094;2023-02-17T10:33:01;12.30;99.90
13848;DHT22;6994;49.752;6.094;2023-02-17T10:35:47;12.30;99.90
13848;DHT22;6994;49.752;6.094;2023-02-17T10:41:00;12.40;99.90
13848;DHT22;6994;49.752;6.094;2023-02-17T10:43:28;12.70;99.90
13848;DHT22;6994;49.752;6.094;2023-02-17T10:45:56;12.60;99.90
13848;DHT22;6994;49.752;6.094;2023-02-17T10:48:25;12.60;99.90
13848;DHT22;6994;49.752;6.094;2023-02-17T10:50:51;12.60;99.90
13848;DHT22;6994;49.752;6.094;2023-02-17T10:53:20;12.60;99.90
13848;DHT22;6994;49.752;6.094;2023-02-17T10:56:02;12.60;99.90
13848;DHT22;6994;49.752;6.094;2023-02-17T11:01:13;12.50;99.90
13848;DHT22;6994;49.752;6.094;2023-02-17T11:03:40;12.50;99.90
13848;DHT22;6994;49.752;6.094;2023-02-17T11:06:17;12.50;99.90
13848;DHT22;6994;49.752;6.094;2023-02-17T11:08:55;12.50;99.90
13848;DHT22;6994;49.752;6.094;2023-02-17T11:11:23;12.50;99.90
13848;DHT22;6994;49.752;6.094;2023-02-17T11:14:07;12.90;99.90
13848;DHT22;6994;49.752;6.094;2023-02-17T11:16:45;13.00;99.90
13848;DHT22;6994;49.752;6.094;2023-02-17T11:19:31;13.10;99.90
13848;DHT22;6994;49.752;6.094;2023-02-17T11:21:54;13.10;99.90
13848;DHT22;6994;49.752;6.094;2023-02-17T11:24:21;13.50;99.90
13848;DHT22;6994;49.752;6.094;2023-02-17T11:26:59;13.70;99.90
13848;DHT22;6994;49.752;6.094;2023-02-17T11:29:25;13.70;99.90
13848;DHT22;6994;49.752;6.094;2023-02-17T11:31:53;13.80;99.90
13848;DHT22;6994;49.752;6.094;2023-02-17T11:34:21;13.70;99.90
13848;DHT22;6994;49.752;6.094;2023-02-17T11:36:56;13.70;99.90
13848;DHT22;6994;49.752;6.094;2023-02-17T11:39:19;13.70;99.90
13848;DHT22;6994;49.752;6.094;2023-02-17T11:41:44;13.50;99.90
13848;DHT22;6994;49.752;6.094;2023-02-17T11:44:20;13.50;99.90
13848;DHT22;6994;49.752;6.094;2023-02-17T11:46:45;13.50;99.90
13848;DHT22;6994;49.752;6.094;2023-02-17T11:52:26;13.60;99.90
13848;DHT22;6994;49.752;6.094;2023-02-17T11:55:00;13.60;99.90
13848;DHT22;6994;49.752;6.094;2023-02-17T11:57:50;13.60;99.90
13848;DHT22;6994;49.752;6.094;2023-02-17T12:11:07;13.90;99.90
13848;DHT22;6994;49.752;6.094;2023-02-17T12:13:49;13.90;99.90
13848;DHT22;6994;49.752;6.094;2023-02-17T12:19:02;13.90;99.90
13848;DHT22;6994;49.752;6.094;2023-02-17T12:21:33;14.10;99.90
13848;DHT22;6994;49.752;6.094;2023-02-17T12:24:12;14.10;99.90
13848;DHT22;6994;49.752;6.094;2023-02-17T12:26:44;13.90;99.90
13848;DHT22;6994;49.752;6.094;2023-02-17T12:31:55;13.80;99.90
13848;DHT22;6994;49.752;6.094;2023-02-17T12:34:41;13.80;99.90
13848;DHT22;6994;49.752;6.094;2023-02-17T12:37:14;13.60;99.90
13848;DHT22;6994;49.752;6.094;2023-02-17T12:39:45;13.60;99.90
13848;DHT22;6994;49.752;6.094;2023-02-17T12:42:25;13.60;99.90
13848;DHT22;6994;49.752;6.094;2023-02-17T12:44:52;13.50;99.90
13848;DHT22;6994;49.752;6.094;2023-02-17T12:47:29;13.40;99.90
13848;DHT22;6994;49.752;6.094;2023-02-17T12:49:58;13.40;99.90
13848;DHT22;6994;49.752;6.094;2023-02-17T12:54:51;13.30;99.90
13848;DHT22;6994;49.752;6.094;2023-02-17T13:00:16;13.30;99.90
13848;DHT22;6994;49.752;6.094;2023-02-17T13:02:42;13.20;99.90
13848;DHT22;6994;49.752;6.094;2023-02-17T13:05:16;13.20;99.90
13848;DHT22;6994;49.752;6.094;2023-02-17T13:13:11;13.20;99.90
13848;DHT22;6994;49.752;6.094;2023-02-17T13:15:39;13.20;99.90
13848;DHT22;6994;49.752;6.094;2023-02-17T13:18:24;13.10;99.90
13848;DHT22;6994;49.752;6.094;2023-02-17T13:20:56;13.30;99.90
13848;DHT22;6994;49.752;6.094;2023-02-17T13:23:36;13.40;99.90
13848;DHT22;6994;49.752;6.094;2023-02-17T13:28:36;13.30;99.90
13848;DHT22;6994;49.752;6.094;2023-02-17T13:31:12;13.20;99.90
13848;DHT22;6994;49.752;6.094;2023-02-17T13:33:42;13.20;99.90
13848;DHT22;6994;49.752;6.094;2023-02-17T13:36:18;13.20;99.90
13848;DHT22;6994;49.752;6.094;2023-02-17T13:38:55;13.20;99.90
13848;DHT22;6994;49.752;6.094;2023-02-17T13:41:21;13.10;99.90
13848;DHT22;6994;49.752;6.094;2023-02-17T13:43:48;13.20;99.90
13848;DHT22;6994;49.752;6.094;2023-02-17T13:46:19;13.10;99.90
13848;DHT22;6994;49.752;6.094;2023-02-17T13:48:43;13.10;99.90
13848;DHT22;6994;49.752;6.094;2023-02-17T13:51:23;13.10;99.90
13848;DHT22;6994;49.752;6.094;2023-02-17T13:53:38;13.10;99.90
13848;DHT22;6994;49.752;6.094;2023-02-17T13:56:08;13.00;99.90
13848;DHT22;6994;49.752;6.094;2023-02-17T13:58:35;13.00;99.90
13848;DHT22;6994;49.752;6.094;2023-02-17T14:01:02;13.00;99.90
13848;DHT22;6994;49.752;6.094;2023-02-17T14:03:29;13.00;99.90
13848;DHT22;6994;49.752;6.094;2023-02-17T14:05:58;13.10;99.90
13848;DHT22;6994;49.752;6.094;2023-02-17T14:08:39;13.10;99.90
13848;DHT22;6994;49.752;6.094;2023-02-17T14:11:17;13.10;99.90
13848;DHT22;6994;49.752;6.094;2023-02-17T14:13:43;13.00;99.90
13848;DHT22;6994;49.752;6.094;2023-02-17T14:16:06;12.90;99.90
13848;DHT22;6994;49.752;6.094;2023-02-17T14:18:35;12.90;99.90
13848;DHT22;6994;49.752;6.094;2023-02-17T14:21:05;12.90;99.90
13848;DHT22;6994;49.752;6.094;2023-02-17T14:23:47;12.80;99.90
13848;DHT22;6994;49.752;6.094;2023-02-17T14:26:42;12.80;99.90
13848;DHT22;6994;49.752;6.094;2023-02-17T14:29:09;13.00;99.90
13848;DHT22;6994;49.752;6.094;2023-02-17T14:34:06;13.20;99.90
13848;DHT22;6994;49.752;6.094;2023-02-17T14:39:00;13.30;99.90
13848;DHT22;6994;49.752;6.094;2023-02-17T14:41:27;13.20;99.90
13848;DHT22;6994;49.752;6.094;2023-02-17T14:43:54;13.10;99.90
13848;DHT22;6994;49.752;6.094;2023-02-17T14:46:21;13.10;99.90
13848;DHT22;6994;49.752;6.094;2023-02-17T14:48:49;13.00;99.90
13848;DHT22;6994;49.752;6.094;2023-02-17T14:51:18;12.80;99.90
13848;DHT22;6994;49.752;6.094;2023-02-17T14:53:44;12.70;99.90
13848;DHT22;6994;49.752;6.094;2023-02-17T14:56:32;12.60;99.90
13848;DHT22;6994;49.752;6.094;2023-02-17T14:58:59;12.50;99.90
13848;DHT22;6994;49.752;6.094;2023-02-17T15:01:26;12.40;99.90
13848;DHT22;6994;49.752;6.094;2023-02-17T15:03:54;12.30;99.90
13848;DHT22;6994;49.752;6.094;2023-02-17T15:06:25;12.30;99.90
13848;DHT22;6994;49.752;6.094;2023-02-17T15:08:51;12.30;99.90
13848;DHT22;6994;49.752;6.094;2023-02-17T15:11:19;12.30;99.90
13848;DHT22;6994;49.752;6.094;2023-02-17T15:13:45;12.30;99.90
13848;DHT22;6994;49.752;6.094;2023-02-17T15:16:13;12.30;99.90
13848;DHT22;6994;49.752;6.094;2023-02-17T15:18:40;12.30;99.90
13848;DHT22;6994;49.752;6.094;2023-02-17T15:21:14;12.40;99.90
13848;DHT22;6994;49.752;6.094;2023-02-17T15:23:37;12.40;99.90
13848;DHT22;6994;49.752;6.094;2023-02-17T15:26:04;12.40;99.90
13848;DHT22;6994;49.752;6.094;2023-02-17T15:28:31;12.40;99.90
13848;DHT22;6994;49.752;6.094;2023-02-17T15:30:58;12.40;99.90
13848;DHT22;6994;49.752;6.094;2023-02-17T15:33:26;12.40;99.90
13848;DHT22;6994;49.752;6.094;2023-02-17T15:35:53;12.40;99.90
13848;DHT22;6994;49.752;6.094;2023-02-17T15:38:21;12.60;99.90
13848;DHT22;6994;49.752;6.094;2023-02-17T15:40:47;12.70;99.90
13848;DHT22;6994;49.752;6.094;2023-02-17T15:43:16;12.70;99.90
13848;DHT22;6994;49.752;6.094;2023-02-17T15:45:42;12.70;99.90
13848;DHT22;6994;49.752;6.094;2023-02-17T15:48:24;12.80;99.90
13848;DHT22;6994;49.752;6.094;2023-02-17T15:50:51;12.80;99.90
13848;DHT22;6994;49.752;6.094;2023-02-17T15:53:18;12.80;99.90
13848;DHT22;6994;49.752;6.094;2023-02-17T15:55:45;12.90;99.90
13848;DHT22;6994;49.752;6.094;2023-02-17T15:58:15;13.10;99.90
13848;DHT22;6994;49.752;6.094;2023-02-17T16:00:42;13.30;99.90
13848;DHT22;6994;49.752;6.094;2023-02-17T16:03:10;13.50;99.90
13848;DHT22;6994;49.752;6.094;2023-02-17T16:05:37;13.60;99.90
13848;DHT22;6994;49.752;6.094;2023-02-17T16:08:05;13.50;99.90
13848;DHT22;6994;49.752;6.094;2023-02-17T16:10:32;13.40;99.90
13848;DHT22;6994;49.752;6.094;2023-02-17T16:12:59;13.40;99.90
13848;DHT22;6994;49.752;6.094;2023-02-17T16:15:27;13.40;99.90
13848;DHT22;6994;49.752;6.094;2023-02-17T16:17:53;13.40;99.90
13848;DHT22;6994;49.752;6.094;2023-02-17T16:20:22;13.40;99.90
13848;DHT22;6994;49.752;6.094;2023-02-17T16:22:48;13.30;99.90
13848;DHT22;6994;49.752;6.094;2023-02-17T16:25:15;13.30;99.90
13848;DHT22;6994;49.752;6.094;2023-02-17T16:27:43;13.30;99.90
13848;DHT22;6994;49.752;6.094;2023-02-17T16:32:43;13.20;99.90
13848;DHT22;6994;49.752;6.094;2023-02-17T16:35:18;13.20;99.90
13848;DHT22;6994;49.752;6.094;2023-02-17T16:37:41;13.20;99.90
13848;DHT22;6994;49.752;6.094;2023-02-17T16:40:17;13.20;99.90
13848;DHT22;6994;49.752;6.094;2023-02-17T16:42:44;13.20;99.90
13848;DHT22;6994;49.752;6.094;2023-02-17T16:45:18;13.10;99.90
13848;DHT22;6994;49.752;6.094;2023-02-17T16:47:46;13.10;99.90
13848;DHT22;6994;49.752;6.094;2023-02-17T16:50:22;13.30;99.90
13848;DHT22;6994;49.752;6.094;2023-02-17T16:52:48;13.40;99.90
13848;DHT22;6994;49.752;6.094;2023-02-17T16:55:19;13.60;99.90
13848;DHT22;6994;49.752;6.094;2023-02-17T16:57:42;13.60;99.90
13848;DHT22;6994;49.752;6.094;2023-02-17T17:00:10;13.50;99.90
13848;DHT22;6994;49.752;6.094;2023-02-17T17:02:37;13.50;99.90
13848;DHT22;6994;49.752;6.094;2023-02-17T17:05:04;13.60;99.90
13848;DHT22;6994;49.752;6.094;2023-02-17T17:07:31;13.60;99.90
13848;DHT22;6994;49.752;6.094;2023-02-17T17:09:58;13.50;99.90